sensor_id;sensor_type;location;lat;lon;timestamp;P1;durP1;ratioP1;P2;durP2;ratioP2
25511;SDS011;13414;44.534;18.700;2024-01-16T00:02:11;27.83;;;14.52;;
25511;SDS011;13414;44.534;18.700;2024-01-16T00:04:39;23.77;;;12.95;;
25511;SDS011;13414;44.534;18.700;2024-01-16T00:07:06;19.98;;;11.77;;
25511;SDS011;13414;44.534;18.700;2024-01-16T00:09:34;24.40;;;13.60;;
25511;SDS011;13414;44.534;18.700;2024-01-16T00:12:02;25.20;;;14.10;;
25511;SDS011;13414;44.534;18.700;2024-01-16T00:14:30;20.35;;;12.55;;
25511;SDS011;13414;44.534;18.700;2024-01-16T00:17:00;23.15;;;13.20;;
25511;SDS011;13414;44.534;18.700;2024-01-16T00:19:29;43.50;;;28.13;;
25511;SDS011;13414;44.534;18.700;2024-01-16T00:21:57;54.38;;;35.88;;
25511;SDS011;13414;44.534;18.700;2024-01-16T00:24:27;20.33;;;13.38;;
25511;SDS011;13414;44.534;18.700;2024-01-16T00:26:55;23.70;;;15.80;;
25511;SDS011;13414;44.534;18.700;2024-01-16T00:29:22;16.95;;;11.65;;
25511;SDS011;13414;44.534;18.700;2024-01-16T00:31:50;18.17;;;11.57;;
25511;SDS011;13414;44.534;18.700;2024-01-16T00:34:18;24.02;;;15.85;;
25511;SDS011;13414;44.534;18.700;2024-01-16T00:36:47;23.25;;;15.15;;
25511;SDS011;13414;44.534;18.700;2024-01-16T00:39:14;25.17;;;15.10;;
25511;SDS011;13414;44.534;18.700;2024-01-16T00:41:48;24.45;;;15.23;;
25511;SDS011;13414;44.534;18.700;2024-01-16T00:44:15;24.25;;;14.05;;
25511;SDS011;13414;44.534;18.700;2024-01-16T00:46:43;24.95;;;15.35;;
25511;SDS011;13414;44.534;18.700;2024-01-16T00:49:10;25.80;;;15.93;;
25511;SDS011;13414;44.534;18.700;2024-01-16T00:51:37;23.85;;;15.18;;
25511;SDS011;13414;44.534;18.700;2024-01-16T00:54:07;24.40;;;16.38;;
25511;SDS011;13414;44.534;18.700;2024-01-16T00:56:34;27.10;;;16.55;;
25511;SDS011;13414;44.534;18.700;2024-01-16T00:59:02;29.27;;;18.55;;
25511;SDS011;13414;44.534;18.700;2024-01-16T01:01:30;34.10;;;21.92;;
25511;SDS011;13414;44.534;18.700;2024-01-16T01:03:57;51.30;;;31.15;;
25511;SDS011;13414;44.534;18.700;2024-01-16T01:06:25;70.63;;;41.95;;
25511;SDS011;13414;44.534;18.700;2024-01-16T01:08:52;79.72;;;44.95;;
25511;SDS011;13414;44.534;18.700;2024-01-16T01:11:21;70.60;;;41.35;;
25511;SDS011;13414;44.534;18.700;2024-01-16T01:13:49;66.47;;;39.78;;
25511;SDS011;13414;44.534;18.700;2024-01-16T01:16:16;58.92;;;35.95;;
25511;SDS011;13414;44.534;18.700;2024-01-16T01:18:44;61.28;;;35.33;;
25511;SDS011;13414;44.534;18.700;2024-01-16T01:21:11;47.22;;;29.58;;
25511;SDS011;13414;44.534;18.700;2024-01-16T01:23:39;49.58;;;29.63;;
25511;SDS011;13414;44.534;18.700;2024-01-16T01:26:06;48.15;;;29.50;;
25511;SDS011;13414;44.534;18.700;2024-01-16T01:28:35;47.25;;;29.58;;
25511;SDS011;13414;44.534;18.700;2024-01-16T01:31:05;50.33;;;29.75;;
25511;SDS011;13414;44.534;18.700;2024-01-16T01:33:35;36.17;;;21.83;;
25511;SDS011;13414;44.534;18.700;2024-01-16T01:36:02;38.60;;;23.50;;
25511;SDS011;13414;44.534;18.700;2024-01-16T01:38:30;45.67;;;26.27;;
25511;SDS011;13414;44.534;18.700;2024-01-16T01:40:57;41.45;;;26.52;;
25511;SDS011;13414;44.534;18.700;2024-01-16T01:43:25;47.40;;;28.08;;
25511;SDS011;13414;44.534;18.700;2024-01-16T01:46:00;48.47;;;30.38;;
25511;SDS011;13414;44.534;18.700;2024-01-16T01:48:40;53.90;;;32.97;;
25511;SDS011;13414;44.534;18.700;2024-01-16T01:51:08;52.08;;;32.25;;
25511;SDS011;13414;44.534;18.700;2024-01-16T01:53:36;52.92;;;30.30;;
25511;SDS011;13414;44.534;18.700;2024-01-16T01:56:06;51.20;;;30.40;;
25511;SDS011;13414;44.534;18.700;2024-01-16T01:58:37;50.78;;;30.65;;
25511;SDS011;13414;44.534;18.700;2024-01-16T02:01:06;66.28;;;41.15;;
25511;SDS011;13414;44.534;18.700;2024-01-16T02:03:35;88.32;;;51.33;;
25511;SDS011;13414;44.534;18.700;2024-01-16T02:08:37;79.55;;;50.55;;
25511;SDS011;13414;44.534;18.700;2024-01-16T02:11:06;92.43;;;60.00;;
25511;SDS011;13414;44.534;18.700;2024-01-16T02:13:33;100.93;;;62.13;;
25511;SDS011;13414;44.534;18.700;2024-01-16T02:16:01;98.40;;;63.42;;
25511;SDS011;13414;44.534;18.700;2024-01-16T02:18:32;97.20;;;60.92;;
25511;SDS011;13414;44.534;18.700;2024-01-16T02:21:00;79.90;;;50.58;;
25511;SDS011;13414;44.534;18.700;2024-01-16T02:23:31;75.18;;;48.53;;
25511;SDS011;13414;44.534;18.700;2024-01-16T02:26:00;77.50;;;52.67;;
25511;SDS011;13414;44.534;18.700;2024-01-16T02:28:29;78.70;;;50.58;;
25511;SDS011;13414;44.534;18.700;2024-01-16T02:30:57;80.45;;;52.25;;
25511;SDS011;13414;44.534;18.700;2024-01-16T02:33:24;71.40;;;47.70;;
25511;SDS011;13414;44.534;18.700;2024-01-16T02:35:52;77.65;;;48.50;;
25511;SDS011;13414;44.534;18.700;2024-01-16T02:38:20;71.38;;;46.65;;
25511;SDS011;13414;44.534;18.700;2024-01-16T02:40:49;77.68;;;48.38;;
25511;SDS011;13414;44.534;18.700;2024-01-16T02:43:18;82.40;;;47.97;;
25511;SDS011;13414;44.534;18.700;2024-01-16T02:45:45;85.95;;;52.38;;
25511;SDS011;13414;44.534;18.700;2024-01-16T02:48:13;76.38;;;47.22;;
25511;SDS011;13414;44.534;18.700;2024-01-16T02:50:40;70.57;;;47.40;;
25511;SDS011;13414;44.534;18.700;2024-01-16T02:53:08;74.55;;;48.10;;
25511;SDS011;13414;44.534;18.700;2024-01-16T02:55:35;79.93;;;49.55;;
25511;SDS011;13414;44.534;18.700;2024-01-16T02:58:05;66.15;;;43.75;;
25511;SDS011;13414;44.534;18.700;2024-01-16T03:00:32;69.82;;;45.33;;
25511;SDS011;13414;44.534;18.700;2024-01-16T03:02:59;71.63;;;46.28;;
25511;SDS011;13414;44.534;18.700;2024-01-16T03:05:27;80.07;;;48.60;;
25511;SDS011;13414;44.534;18.700;2024-01-16T03:07:54;92.18;;;55.63;;
25511;SDS011;13414;44.534;18.700;2024-01-16T03:10:22;102.72;;;57.13;;
25511;SDS011;13414;44.534;18.700;2024-01-16T03:12:49;101.20;;;58.50;;
25511;SDS011;13414;44.534;18.700;2024-01-16T03:15:18;93.00;;;56.55;;
25511;SDS011;13414;44.534;18.700;2024-01-16T03:17:46;89.03;;;54.35;;
25511;SDS011;13414;44.534;18.700;2024-01-16T03:20:14;100.25;;;60.90;;
25511;SDS011;13414;44.534;18.700;2024-01-16T03:22:42;93.97;;;57.47;;
25511;SDS011;13414;44.534;18.700;2024-01-16T03:25:10;79.72;;;50.22;;
25511;SDS011;13414;44.534;18.700;2024-01-16T03:27:38;77.22;;;44.25;;
25511;SDS011;13414;44.534;18.700;2024-01-16T03:30:06;69.75;;;42.47;;
25511;SDS011;13414;44.534;18.700;2024-01-16T03:32:36;65.70;;;40.40;;
25511;SDS011;13414;44.534;18.700;2024-01-16T03:35:04;73.70;;;44.25;;
25511;SDS011;13414;44.534;18.700;2024-01-16T03:37:32;73.53;;;45.38;;
25511;SDS011;13414;44.534;18.700;2024-01-16T03:40:00;84.93;;;51.45;;
25511;SDS011;13414;44.534;18.700;2024-01-16T03:42:28;101.80;;;59.38;;
25511;SDS011;13414;44.534;18.700;2024-01-16T03:44:55;79.90;;;48.50;;
25511;SDS011;13414;44.534;18.700;2024-01-16T03:47:22;81.47;;;51.03;;
25511;SDS011;13414;44.534;18.700;2024-01-16T03:49:51;78.90;;;49.22;;
25511;SDS011;13414;44.534;18.700;2024-01-16T03:52:19;59.55;;;37.42;;
25511;SDS011;13414;44.534;18.700;2024-01-16T03:54:46;43.90;;;27.95;;
25511;SDS011;13414;44.534;18.700;2024-01-16T03:57:14;62.63;;;39.63;;
25511;SDS011;13414;44.534;18.700;2024-01-16T03:59:41;56.33;;;33.55;;
25511;SDS011;13414;44.534;18.700;2024-01-16T04:02:09;50.00;;;28.42;;
25511;SDS011;13414;44.534;18.700;2024-01-16T04:04:37;48.33;;;28.20;;
25511;SDS011;13414;44.534;18.700;2024-01-16T04:07:06;52.80;;;30.40;;
25511;SDS011;13414;44.534;18.700;2024-01-16T04:09:33;27.70;;;15.98;;
25511;SDS011;13414;44.534;18.700;2024-01-16T04:12:00;30.80;;;18.05;;
25511;SDS011;13414;44.534;18.700;2024-01-16T04:14:28;35.95;;;20.67;;
25511;SDS011;13414;44.534;18.700;2024-01-16T04:16:55;86.65;;;45.22;;
25511;SDS011;13414;44.534;18.700;2024-01-16T04:19:23;61.03;;;36.03;;
25511;SDS011;13414;44.534;18.700;2024-01-16T04:21:50;49.42;;;30.23;;
25511;SDS011;13414;44.534;18.700;2024-01-16T04:24:21;40.53;;;25.92;;
25511;SDS011;13414;44.534;18.700;2024-01-16T04:26:49;24.50;;;15.52;;
25511;SDS011;13414;44.534;18.700;2024-01-16T04:29:17;12.40;;;7.85;;
25511;SDS011;13414;44.534;18.700;2024-01-16T04:31:44;22.30;;;14.02;;
25511;SDS011;13414;44.534;18.700;2024-01-16T04:34:12;13.32;;;9.27;;
25511;SDS011;13414;44.534;18.700;2024-01-16T04:36:39;15.07;;;10.52;;
25511;SDS011;13414;44.534;18.700;2024-01-16T04:39:06;34.58;;;23.40;;
25511;SDS011;13414;44.534;18.700;2024-01-16T04:41:37;34.70;;;24.38;;
25511;SDS011;13414;44.534;18.700;2024-01-16T04:44:04;35.60;;;23.92;;
25511;SDS011;13414;44.534;18.700;2024-01-16T04:46:32;37.35;;;24.73;;
25511;SDS011;13414;44.534;18.700;2024-01-16T04:48:59;37.72;;;25.85;;
25511;SDS011;13414;44.534;18.700;2024-01-16T04:51:27;47.65;;;34.17;;
25511;SDS011;13414;44.534;18.700;2024-01-16T04:53:54;62.45;;;42.17;;
25511;SDS011;13414;44.534;18.700;2024-01-16T04:56:22;45.08;;;31.83;;
25511;SDS011;13414;44.534;18.700;2024-01-16T04:58:52;41.95;;;29.73;;
25511;SDS011;13414;44.534;18.700;2024-01-16T05:01:19;40.78;;;29.00;;
25511;SDS011;13414;44.534;18.700;2024-01-16T05:03:47;46.55;;;31.80;;
25511;SDS011;13414;44.534;18.700;2024-01-16T05:06:14;50.50;;;33.13;;
25511;SDS011;13414;44.534;18.700;2024-01-16T05:08:42;48.88;;;31.33;;
25511;SDS011;13414;44.534;18.700;2024-01-16T05:11:10;54.13;;;34.75;;
25511;SDS011;13414;44.534;18.700;2024-01-16T05:13:37;67.72;;;45.35;;
25511;SDS011;13414;44.534;18.700;2024-01-16T05:16:06;69.90;;;45.63;;
25511;SDS011;13414;44.534;18.700;2024-01-16T05:18:34;67.47;;;46.05;;
25511;SDS011;13414;44.534;18.700;2024-01-16T05:21:01;61.13;;;41.40;;
25511;SDS011;13414;44.534;18.700;2024-01-16T05:23:32;67.68;;;41.70;;
25511;SDS011;13414;44.534;18.700;2024-01-16T05:26:00;72.15;;;43.92;;
25511;SDS011;13414;44.534;18.700;2024-01-16T05:28:27;110.60;;;58.42;;
25511;SDS011;13414;44.534;18.700;2024-01-16T05:30:55;112.18;;;59.33;;
25511;SDS011;13414;44.534;18.700;2024-01-16T05:33:24;122.30;;;62.95;;
25511;SDS011;13414;44.534;18.700;2024-01-16T05:35:52;98.45;;;53.83;;
25511;SDS011;13414;44.534;18.700;2024-01-16T05:38:19;110.60;;;61.72;;
25511;SDS011;13414;44.534;18.700;2024-01-16T05:40:47;122.97;;;69.88;;
25511;SDS011;13414;44.534;18.700;2024-01-16T05:43:14;231.27;;;122.35;;
25511;SDS011;13414;44.534;18.700;2024-01-16T05:45:41;249.20;;;133.63;;
25511;SDS011;13414;44.534;18.700;2024-01-16T05:48:09;223.57;;;115.45;;
25511;SDS011;13414;44.534;18.700;2024-01-16T05:50:38;428.17;;;154.65;;
25511;SDS011;13414;44.534;18.700;2024-01-16T05:53:06;602.80;;;212.90;;
25511;SDS011;13414;44.534;18.700;2024-01-16T05:55:33;228.85;;;92.03;;
25511;SDS011;13414;44.534;18.700;2024-01-16T05:58:02;121.07;;;61.88;;
25511;SDS011;13414;44.534;18.700;2024-01-16T06:00:30;166.80;;;72.93;;
25511;SDS011;13414;44.534;18.700;2024-01-16T06:02:59;210.20;;;86.93;;
25511;SDS011;13414;44.534;18.700;2024-01-16T06:05:26;281.63;;;108.97;;
25511;SDS011;13414;44.534;18.700;2024-01-16T06:07:55;307.88;;;119.43;;
25511;SDS011;13414;44.534;18.700;2024-01-16T06:10:23;293.50;;;110.93;;
25511;SDS011;13414;44.534;18.700;2024-01-16T06:12:50;262.83;;;106.70;;
25511;SDS011;13414;44.534;18.700;2024-01-16T06:15:21;167.98;;;78.47;;
25511;SDS011;13414;44.534;18.700;2024-01-16T06:17:49;121.85;;;66.07;;
25511;SDS011;13414;44.534;18.700;2024-01-16T06:20:16;121.35;;;69.82;;
25511;SDS011;13414;44.534;18.700;2024-01-16T06:22:44;170.05;;;93.40;;
25511;SDS011;13414;44.534;18.700;2024-01-16T06:25:13;161.10;;;89.60;;
25511;SDS011;13414;44.534;18.700;2024-01-16T06:27:40;228.70;;;113.82;;
25511;SDS011;13414;44.534;18.700;2024-01-16T06:30:08;146.95;;;79.10;;
25511;SDS011;13414;44.534;18.700;2024-01-16T06:32:36;218.00;;;107.00;;
25511;SDS011;13414;44.534;18.700;2024-01-16T06:35:04;197.73;;;99.47;;
25511;SDS011;13414;44.534;18.700;2024-01-16T06:37:33;211.43;;;113.50;;
25511;SDS011;13414;44.534;18.700;2024-01-16T06:40:00;184.27;;;104.28;;
25511;SDS011;13414;44.534;18.700;2024-01-16T06:42:29;159.57;;;93.18;;
25511;SDS011;13414;44.534;18.700;2024-01-16T06:44:57;144.13;;;89.72;;
25511;SDS011;13414;44.534;18.700;2024-01-16T06:47:24;149.25;;;90.18;;
25511;SDS011;13414;44.534;18.700;2024-01-16T06:49:52;187.13;;;112.72;;
25511;SDS011;13414;44.534;18.700;2024-01-16T06:52:19;186.73;;;109.75;;
25511;SDS011;13414;44.534;18.700;2024-01-16T06:54:47;197.63;;;118.40;;
25511;SDS011;13414;44.534;18.700;2024-01-16T06:57:14;175.88;;;108.53;;
25511;SDS011;13414;44.534;18.700;2024-01-16T06:59:43;152.40;;;92.30;;
25511;SDS011;13414;44.534;18.700;2024-01-16T07:02:11;184.40;;;115.10;;
25511;SDS011;13414;44.534;18.700;2024-01-16T07:04:39;190.48;;;118.07;;
25511;SDS011;13414;44.534;18.700;2024-01-16T07:07:06;171.43;;;108.32;;
25511;SDS011;13414;44.534;18.700;2024-01-16T07:09:34;190.07;;;113.95;;
25511;SDS011;13414;44.534;18.700;2024-01-16T07:12:01;250.93;;;157.55;;
25511;SDS011;13414;44.534;18.700;2024-01-16T07:14:32;211.85;;;133.32;;
25511;SDS011;13414;44.534;18.700;2024-01-16T07:17:01;240.90;;;148.45;;
25511;SDS011;13414;44.534;18.700;2024-01-16T07:19:28;217.55;;;136.20;;
25511;SDS011;13414;44.534;18.700;2024-01-16T07:21:56;164.60;;;102.97;;
25511;SDS011;13414;44.534;18.700;2024-01-16T07:24:23;182.38;;;110.78;;
25511;SDS011;13414;44.534;18.700;2024-01-16T07:26:51;223.90;;;138.05;;
25511;SDS011;13414;44.534;18.700;2024-01-16T07:29:19;247.23;;;153.80;;
25511;SDS011;13414;44.534;18.700;2024-01-16T07:31:47;256.20;;;158.73;;
25511;SDS011;13414;44.534;18.700;2024-01-16T07:34:16;238.55;;;149.00;;
25511;SDS011;13414;44.534;18.700;2024-01-16T07:36:47;231.55;;;142.38;;
25511;SDS011;13414;44.534;18.700;2024-01-16T07:39:15;305.90;;;202.15;;
25511;SDS011;13414;44.534;18.700;2024-01-16T07:41:42;246.38;;;150.30;;
25511;SDS011;13414;44.534;18.700;2024-01-16T07:44:08;173.68;;;104.45;;
25511;SDS011;13414;44.534;18.700;2024-01-16T07:46:36;151.73;;;96.18;;
25511;SDS011;13414;44.534;18.700;2024-01-16T07:49:03;137.77;;;84.20;;
25511;SDS011;13414;44.534;18.700;2024-01-16T07:51:32;167.25;;;103.68;;
25511;SDS011;13414;44.534;18.700;2024-01-16T07:54:06;175.73;;;110.90;;
25511;SDS011;13414;44.534;18.700;2024-01-16T07:56:35;207.65;;;129.65;;
25511;SDS011;13414;44.534;18.700;2024-01-16T07:59:03;173.98;;;110.60;;
25511;SDS011;13414;44.534;18.700;2024-01-16T08:01:30;183.50;;;112.50;;
25511;SDS011;13414;44.534;18.700;2024-01-16T08:03:58;214.73;;;131.80;;
25511;SDS011;13414;44.534;18.700;2024-01-16T08:06:25;208.73;;;124.82;;
25511;SDS011;13414;44.534;18.700;2024-01-16T08:08:54;143.90;;;88.53;;
25511;SDS011;13414;44.534;18.700;2024-01-16T08:11:22;138.52;;;83.45;;
25511;SDS011;13414;44.534;18.700;2024-01-16T08:13:50;150.73;;;92.43;;
25511;SDS011;13414;44.534;18.700;2024-01-16T08:16:17;150.70;;;96.93;;
25511;SDS011;13414;44.534;18.700;2024-01-16T08:18:46;172.27;;;104.28;;
25511;SDS011;13414;44.534;18.700;2024-01-16T08:21:13;177.90;;;109.15;;
25511;SDS011;13414;44.534;18.700;2024-01-16T08:23:41;152.45;;;93.25;;
25511;SDS011;13414;44.534;18.700;2024-01-16T08:26:10;116.47;;;72.20;;
25511;SDS011;13414;44.534;18.700;2024-01-16T08:28:37;119.47;;;73.75;;
25511;SDS011;13414;44.534;18.700;2024-01-16T08:31:05;106.70;;;66.10;;
25511;SDS011;13414;44.534;18.700;2024-01-16T08:33:32;123.03;;;78.00;;
25511;SDS011;13414;44.534;18.700;2024-01-16T08:36:00;117.47;;;72.13;;
25511;SDS011;13414;44.534;18.700;2024-01-16T08:38:28;107.93;;;68.50;;
25511;SDS011;13414;44.534;18.700;2024-01-16T08:40:57;140.82;;;87.20;;
25511;SDS011;13414;44.534;18.700;2024-01-16T08:43:25;105.13;;;64.32;;
25511;SDS011;13414;44.534;18.700;2024-01-16T08:45:56;117.60;;;76.30;;
25511;SDS011;13414;44.534;18.700;2024-01-16T08:48:23;142.07;;;86.65;;
25511;SDS011;13414;44.534;18.700;2024-01-16T08:50:51;123.32;;;77.25;;
25511;SDS011;13414;44.534;18.700;2024-01-16T08:53:19;99.20;;;60.25;;
25511;SDS011;13414;44.534;18.700;2024-01-16T08:55:48;114.60;;;70.72;;
25511;SDS011;13414;44.534;18.700;2024-01-16T08:58:16;126.30;;;78.05;;
25511;SDS011;13414;44.534;18.700;2024-01-16T09:00:45;124.50;;;79.30;;
25511;SDS011;13414;44.534;18.700;2024-01-16T09:03:12;134.68;;;82.40;;
25511;SDS011;13414;44.534;18.700;2024-01-16T09:05:40;129.00;;;77.82;;
25511;SDS011;13414;44.534;18.700;2024-01-16T09:08:08;131.70;;;81.07;;
25511;SDS011;13414;44.534;18.700;2024-01-16T09:10:35;106.43;;;69.13;;
25511;SDS011;13414;44.534;18.700;2024-01-16T09:13:03;109.72;;;69.93;;
25511;SDS011;13414;44.534;18.700;2024-01-16T09:15:30;110.63;;;71.40;;
25511;SDS011;13414;44.534;18.700;2024-01-16T09:17:59;115.90;;;74.95;;
25511;SDS011;13414;44.534;18.700;2024-01-16T09:20:27;113.00;;;74.97;;
25511;SDS011;13414;44.534;18.700;2024-01-16T09:22:54;143.02;;;88.57;;
25511;SDS011;13414;44.534;18.700;2024-01-16T09:25:22;136.60;;;89.60;;
25511;SDS011;13414;44.534;18.700;2024-01-16T09:27:52;125.97;;;81.85;;
25511;SDS011;13414;44.534;18.700;2024-01-16T09:30:20;125.50;;;81.88;;
25511;SDS011;13414;44.534;18.700;2024-01-16T09:32:48;124.45;;;79.90;;
25511;SDS011;13414;44.534;18.700;2024-01-16T09:35:17;116.25;;;75.05;;
25511;SDS011;13414;44.534;18.700;2024-01-16T09:37:44;131.48;;;81.43;;
25511;SDS011;13414;44.534;18.700;2024-01-16T09:40:12;108.55;;;71.47;;
25511;SDS011;13414;44.534;18.700;2024-01-16T09:42:40;97.53;;;62.03;;
25511;SDS011;13414;44.534;18.700;2024-01-16T09:45:07;92.82;;;58.75;;
25511;SDS011;13414;44.534;18.700;2024-01-16T09:47:36;86.50;;;54.65;;
25511;SDS011;13414;44.534;18.700;2024-01-16T09:50:05;76.50;;;51.35;;
25511;SDS011;13414;44.534;18.700;2024-01-16T09:52:35;85.13;;;56.50;;
25511;SDS011;13414;44.534;18.700;2024-01-16T09:55:02;85.40;;;56.60;;
25511;SDS011;13414;44.534;18.700;2024-01-16T09:57:31;92.93;;;61.75;;
25511;SDS011;13414;44.534;18.700;2024-01-16T10:00:01;100.57;;;64.03;;
25511;SDS011;13414;44.534;18.700;2024-01-16T10:02:32;96.82;;;59.95;;
25511;SDS011;13414;44.534;18.700;2024-01-16T10:05:00;84.03;;;55.60;;
25511;SDS011;13414;44.534;18.700;2024-01-16T10:07:28;71.93;;;45.88;;
25511;SDS011;13414;44.534;18.700;2024-01-16T10:10:00;65.90;;;42.38;;
25511;SDS011;13414;44.534;18.700;2024-01-16T10:12:29;61.20;;;38.47;;
25511;SDS011;13414;44.534;18.700;2024-01-16T10:14:57;62.28;;;36.05;;
25511;SDS011;13414;44.534;18.700;2024-01-16T10:17:35;51.47;;;32.25;;
25511;SDS011;13414;44.534;18.700;2024-01-16T10:20:04;52.00;;;33.28;;
25511;SDS011;13414;44.534;18.700;2024-01-16T10:22:32;49.47;;;31.20;;
25511;SDS011;13414;44.534;18.700;2024-01-16T10:25:05;53.50;;;34.30;;
25511;SDS011;13414;44.534;18.700;2024-01-16T10:27:35;62.40;;;37.75;;
25511;SDS011;13414;44.534;18.700;2024-01-16T10:30:03;56.05;;;35.47;;
25511;SDS011;13414;44.534;18.700;2024-01-16T10:32:33;27.80;;;17.73;;
25511;SDS011;13414;44.534;18.700;2024-01-16T10:35:05;27.80;;;17.67;;
25511;SDS011;13414;44.534;18.700;2024-01-16T10:37:43;24.85;;;15.70;;
25511;SDS011;13414;44.534;18.700;2024-01-16T10:40:15;29.40;;;18.55;;
25511;SDS011;13414;44.534;18.700;2024-01-16T10:42:43;27.65;;;17.23;;
25511;SDS011;13414;44.534;18.700;2024-01-16T10:45:16;28.52;;;16.58;;
25511;SDS011;13414;44.534;18.700;2024-01-16T10:47:45;21.25;;;12.43;;
25511;SDS011;13414;44.534;18.700;2024-01-16T10:50:13;31.33;;;15.48;;
25511;SDS011;13414;44.534;18.700;2024-01-16T10:52:42;25.70;;;15.20;;
25511;SDS011;13414;44.534;18.700;2024-01-16T10:55:19;22.90;;;13.02;;
25511;SDS011;13414;44.534;18.700;2024-01-16T10:57:48;25.02;;;14.20;;
25511;SDS011;13414;44.534;18.700;2024-01-16T11:00:17;19.50;;;10.65;;
25511;SDS011;13414;44.534;18.700;2024-01-16T11:02:51;16.73;;;8.23;;
25511;SDS011;13414;44.534;18.700;2024-01-16T11:05:27;13.88;;;7.93;;
25511;SDS011;13414;44.534;18.700;2024-01-16T11:07:57;13.80;;;7.50;;
25511;SDS011;13414;44.534;18.700;2024-01-16T11:10:28;14.75;;;7.68;;
25511;SDS011;13414;44.534;18.700;2024-01-16T11:12:59;12.55;;;6.25;;
25511;SDS011;13414;44.534;18.700;2024-01-16T11:15:28;10.77;;;5.93;;
25511;SDS011;13414;44.534;18.700;2024-01-16T11:17:55;12.15;;;6.70;;
25511;SDS011;13414;44.534;18.700;2024-01-16T11:20:23;12.43;;;6.82;;
25511;SDS011;13414;44.534;18.700;2024-01-16T11:22:51;7.97;;;4.60;;
25511;SDS011;13414;44.534;18.700;2024-01-16T11:25:32;8.32;;;4.10;;
25511;SDS011;13414;44.534;18.700;2024-01-16T11:28:10;6.78;;;3.42;;
25511;SDS011;13414;44.534;18.700;2024-01-16T11:30:38;5.80;;;3.45;;
25511;SDS011;13414;44.534;18.700;2024-01-16T11:33:13;4.57;;;2.85;;
25511;SDS011;13414;44.534;18.700;2024-01-16T11:39:17;5.97;;;3.40;;
25511;SDS011;13414;44.534;18.700;2024-01-16T11:41:57;7.25;;;4.10;;
25511;SDS011;13414;44.534;18.700;2024-01-16T11:44:39;7.03;;;3.78;;
25511;SDS011;13414;44.534;18.700;2024-01-16T11:47:10;4.53;;;2.30;;
25511;SDS011;13414;44.534;18.700;2024-01-16T11:49:47;4.97;;;2.35;;
25511;SDS011;13414;44.534;18.700;2024-01-16T11:52:18;7.00;;;3.33;;
25511;SDS011;13414;44.534;18.700;2024-01-16T11:58:02;8.57;;;4.10;;
25511;SDS011;13414;44.534;18.700;2024-01-16T12:00:51;9.57;;;4.40;;
25511;SDS011;13414;44.534;18.700;2024-01-16T12:03:21;4.20;;;2.40;;
25511;SDS011;13414;44.534;18.700;2024-01-16T12:05:54;5.80;;;2.80;;
25511;SDS011;13414;44.534;18.700;2024-01-16T12:08:22;8.32;;;3.95;;
25511;SDS011;13414;44.534;18.700;2024-01-16T12:10:51;7.05;;;3.63;;
25511;SDS011;13414;44.534;18.700;2024-01-16T12:13:20;9.13;;;3.42;;
25511;SDS011;13414;44.534;18.700;2024-01-16T12:15:48;6.50;;;3.20;;
25511;SDS011;13414;44.534;18.700;2024-01-16T12:18:25;4.80;;;3.08;;
25511;SDS011;13414;44.534;18.700;2024-01-16T12:20:53;7.43;;;3.72;;
25511;SDS011;13414;44.534;18.700;2024-01-16T12:23:21;6.45;;;3.30;;
25511;SDS011;13414;44.534;18.700;2024-01-16T12:25:51;6.43;;;3.20;;
25511;SDS011;13414;44.534;18.700;2024-01-16T12:28:21;6.07;;;3.20;;
25511;SDS011;13414;44.534;18.700;2024-01-16T12:30:49;7.55;;;3.65;;
25511;SDS011;13414;44.534;18.700;2024-01-16T12:33:20;8.57;;;4.55;;
25511;SDS011;13414;44.534;18.700;2024-01-16T12:35:49;8.93;;;3.67;;
25511;SDS011;13414;44.534;18.700;2024-01-16T12:38:17;5.82;;;3.25;;
25511;SDS011;13414;44.534;18.700;2024-01-16T12:40:45;7.85;;;4.18;;
25511;SDS011;13414;44.534;18.700;2024-01-16T12:43:15;17.48;;;7.90;;
25511;SDS011;13414;44.534;18.700;2024-01-16T12:45:45;8.95;;;4.18;;
25511;SDS011;13414;44.534;18.700;2024-01-16T12:48:13;6.95;;;3.92;;
25511;SDS011;13414;44.534;18.700;2024-01-16T12:50:40;9.38;;;4.53;;
25511;SDS011;13414;44.534;18.700;2024-01-16T12:53:08;5.20;;;3.50;;
25511;SDS011;13414;44.534;18.700;2024-01-16T12:55:37;6.28;;;3.50;;
25511;SDS011;13414;44.534;18.700;2024-01-16T12:58:15;5.63;;;2.78;;
25511;SDS011;13414;44.534;18.700;2024-01-16T13:00:44;5.68;;;2.60;;
25511;SDS011;13414;44.534;18.700;2024-01-16T13:03:15;5.47;;;2.88;;
25511;SDS011;13414;44.534;18.700;2024-01-16T13:05:44;8.90;;;5.25;;
25511;SDS011;13414;44.534;18.700;2024-01-16T13:08:19;7.68;;;3.92;;
25511;SDS011;13414;44.534;18.700;2024-01-16T13:11:01;5.82;;;3.40;;
25511;SDS011;13414;44.534;18.700;2024-01-16T13:13:29;5.50;;;2.92;;
25511;SDS011;13414;44.534;18.700;2024-01-16T13:15:58;5.85;;;2.85;;
25511;SDS011;13414;44.534;18.700;2024-01-16T13:18:25;7.88;;;3.70;;
25511;SDS011;13414;44.534;18.700;2024-01-16T13:20:56;5.85;;;2.90;;
25511;SDS011;13414;44.534;18.700;2024-01-16T13:23:24;9.45;;;3.65;;
25511;SDS011;13414;44.534;18.700;2024-01-16T13:25:53;7.80;;;3.83;;
25511;SDS011;13414;44.534;18.700;2024-01-16T13:28:22;11.32;;;4.30;;
25511;SDS011;13414;44.534;18.700;2024-01-16T13:30:50;10.80;;;5.07;;
25511;SDS011;13414;44.534;18.700;2024-01-16T13:33:18;9.65;;;4.30;;
25511;SDS011;13414;44.534;18.700;2024-01-16T13:35:47;14.38;;;7.80;;
25511;SDS011;13414;44.534;18.700;2024-01-16T13:38:14;25.15;;;12.18;;
25511;SDS011;13414;44.534;18.700;2024-01-16T13:40:42;11.48;;;6.72;;
25511;SDS011;13414;44.534;18.700;2024-01-16T13:43:10;7.30;;;3.70;;
25511;SDS011;13414;44.534;18.700;2024-01-16T13:45:38;9.10;;;4.35;;
25511;SDS011;13414;44.534;18.700;2024-01-16T13:48:07;8.48;;;4.45;;
25511;SDS011;13414;44.534;18.700;2024-01-16T13:50:36;6.95;;;3.72;;
25511;SDS011;13414;44.534;18.700;2024-01-16T13:53:03;7.70;;;3.90;;
25511;SDS011;13414;44.534;18.700;2024-01-16T13:55:32;8.45;;;4.65;;
25511;SDS011;13414;44.534;18.700;2024-01-16T13:58:00;9.20;;;5.10;;
25511;SDS011;13414;44.534;18.700;2024-01-16T14:00:27;9.02;;;5.20;;
25511;SDS011;13414;44.534;18.700;2024-01-16T14:02:56;9.60;;;5.03;;
25511;SDS011;13414;44.534;18.700;2024-01-16T14:05:28;13.95;;;6.68;;
25511;SDS011;13414;44.534;18.700;2024-01-16T14:07:58;9.65;;;4.72;;
25511;SDS011;13414;44.534;18.700;2024-01-16T14:10:25;13.93;;;8.18;;
25511;SDS011;13414;44.534;18.700;2024-01-16T14:12:53;19.52;;;10.80;;
25511;SDS011;13414;44.534;18.700;2024-01-16T14:15:25;26.00;;;13.85;;
25511;SDS011;13414;44.534;18.700;2024-01-16T14:17:52;20.10;;;7.68;;
25511;SDS011;13414;44.534;18.700;2024-01-16T14:20:22;10.55;;;5.95;;
25511;SDS011;13414;44.534;18.700;2024-01-16T14:22:52;18.95;;;10.02;;
25511;SDS011;13414;44.534;18.700;2024-01-16T14:25:21;15.23;;;8.00;;
25511;SDS011;13414;44.534;18.700;2024-01-16T14:27:55;19.05;;;9.63;;